createdAt,value
2022-09-04T00:03:03.076Z,7.08
2022-09-04T00:08:23.553Z,7.02
2022-09-04T00:13:42.815Z,6.94
2022-09-04T00:18:55.167Z,6.94
2022-09-04T00:24:05.415Z,6.84
2022-09-04T00:29:21.142Z,6.71
2022-09-04T00:34:48.064Z,6.51
2022-09-04T00:40:04.145Z,6.19
2022-09-04T00:45:45.041Z,6.29
2022-09-04T00:51:16.123Z,6.29
2022-09-04T00:56:37.576Z,6.22
2022-09-04T01:01:41.098Z,6.10
2022-09-04T01:06:49.745Z,6.21
2022-09-04T01:12:15.050Z,6.14
2022-09-04T01:17:41.867Z,6.07
2022-09-04T01:22:59.253Z,6.11
2022-09-04T01:28:05.179Z,6.07
2022-09-04T01:33:15.835Z,6.10
2022-09-04T01:38:33.879Z,6.04
2022-09-04T01:43:36.654Z,5.96
2022-09-04T01:48:54.281Z,5.93
2022-09-04T01:54:36.051Z,5.80
2022-09-04T02:00:08.713Z,5.65
2022-09-04T02:05:20.213Z,5.56
2022-09-04T02:10:41.137Z,5.49
2022-09-04T02:16:09.830Z,5.39
2022-09-04T02:21:33.469Z,5.26
2022-09-04T02:26:51.250Z,5.28
2022-09-04T02:32:03.957Z,5.23
2022-09-04T02:37:20.124Z,5.20
2022-09-04T02:42:41.253Z,5.15
2022-09-04T02:47:57.462Z,5.22
2022-09-04T02:53:27.024Z,5.34
2022-09-04T02:59:11.728Z,5.53
2022-09-04T03:04:23.731Z,5.92
2022-09-04T03:09:48.397Z,6.41
2022-09-04T03:15:01.175Z,6.78
2022-09-04T03:20:27.618Z,7.13
2022-09-04T03:25:58.111Z,7.26
2022-09-04T03:31:24.238Z,7.11
2022-09-04T03:36:48.773Z,7.25
2022-09-04T03:41:54.424Z,7.72
2022-09-04T03:47:02.431Z,7.80
2022-09-04T03:52:11.431Z,7.77
2022-09-04T03:57:40.879Z,7.83
2022-09-04T04:03:06.937Z,7.99
2022-09-04T04:08:46.055Z,7.76
2022-09-04T04:14:11.220Z,7.77
2022-09-04T04:19:36.941Z,7.91
2022-09-04T04:24:57.624Z,8.01
2022-09-04T04:30:15.976Z,8.14
2022-09-04T04:35:29.373Z,8.35
2022-09-04T04:40:51.676Z,8.51
2022-09-04T04:46:03.923Z,8.70
2022-09-04T04:51:25.028Z,8.57
2022-09-04T04:56:46.844Z,8.69
2022-09-04T05:02:07.517Z,8.90
2022-09-04T05:07:32.218Z,8.93
2022-09-04T05:12:56.130Z,8.85
2022-09-04T05:18:33.198Z,8.90
2022-09-04T05:23:55.962Z,9.05
2022-09-04T05:29:05.185Z,9.48
2022-09-04T05:34:35.320Z,9.84
2022-09-04T05:39:47.080Z,10.07
2022-09-04T05:45:08.925Z,10.28
2022-09-04T05:50:24.151Z,10.24
2022-09-04T05:55:56.590Z,10.49
2022-09-04T06:01:23.347Z,10.69
2022-09-04T06:06:48.010Z,10.81
2022-09-04T06:12:02.928Z,10.95
2022-09-04T06:17:14.802Z,11.29
2022-09-04T06:22:39.100Z,11.36
2022-09-04T06:28:06.650Z,11.71
2022-09-04T06:33:29.353Z,11.86
2022-09-04T06:38:46.874Z,12.21
2022-09-04T06:44:15.430Z,12.18
2022-09-04T06:49:35.670Z,12.27
2022-09-04T06:54:57.903Z,12.41
2022-09-04T07:00:11.149Z,12.33
2022-09-04T07:05:16.744Z,12.29
2022-09-04T07:10:36.594Z,12.72
2022-09-04T07:16:00.852Z,12.89
2022-09-04T07:21:25.442Z,13.00
2022-09-04T07:26:53.124Z,12.96
2022-09-04T07:32:05.902Z,13.41
2022-09-04T07:37:27.946Z,13.67
2022-09-04T07:42:33.988Z,13.94
2022-09-04T07:48:00.099Z,14.01
2022-09-04T07:53:13.873Z,14.61
2022-09-04T07:58:34.742Z,14.83
2022-09-04T08:04:26.747Z,14.44
2022-09-04T08:10:15.490Z,14.15
2022-09-04T08:15:43.229Z,13.78
2022-09-04T08:21:11.772Z,14.24
2022-09-04T08:26:33.237Z,14.90
2022-09-04T08:32:04.511Z,14.02
2022-09-04T08:37:25.276Z,14.29
2022-09-04T08:42:54.264Z,14.73
2022-09-04T08:48:11.957Z,15.38
2022-09-04T08:53:39.223Z,15.00
2022-09-04T08:59:06.625Z,14.63
2022-09-04T09:04:32.744Z,13.65
2022-09-04T09:10:16.449Z,14.11
2022-09-04T09:15:50.433Z,14.29
2022-09-04T09:20:54.489Z,14.84
2022-09-04T09:26:18.645Z,15.74
2022-09-04T09:31:52.892Z,16.36
2022-09-04T09:37:25.504Z,15.91
2022-09-04T09:42:37.583Z,16.32
2022-09-04T09:48:15.594Z,15.76
2022-09-04T09:53:23.795Z,15.39
2022-09-04T09:58:50.893Z,15.34
2022-09-04T10:04:06.905Z,14.52
2022-09-04T10:09:30.796Z,14.18
2022-09-04T10:14:45.295Z,14.29
2022-09-04T10:20:25.285Z,15.04
2022-09-04T10:25:49.359Z,15.50
2022-09-04T10:31:29.426Z,16.43
2022-09-04T10:37:02.932Z,16.76
2022-09-04T10:42:21.548Z,16.48
2022-09-04T10:47:48.821Z,15.65
2022-09-04T10:53:22.344Z,16.02
2022-09-04T10:58:50.423Z,16.08
2022-09-04T11:04:15.153Z,16.37
2022-09-04T11:09:42.383Z,16.45
2022-09-04T11:14:50.808Z,16.12
2022-09-04T11:20:18.545Z,16.37
2022-09-04T11:25:39.556Z,16.71
2022-09-04T11:31:00.292Z,15.63
2022-09-04T11:36:35.547Z,15.53
2022-09-04T11:42:03.980Z,15.82
2022-09-04T11:47:25.045Z,16.29
2022-09-04T11:52:50.783Z,16.58
2022-09-04T11:58:15.183Z,15.83
2022-09-04T12:03:33.017Z,15.56
2022-09-04T12:09:13.411Z,15.63
2022-09-04T12:14:53.480Z,15.95
2022-09-04T12:20:24.367Z,16.20
2022-09-04T12:26:03.685Z,15.69
2022-09-04T12:31:21.385Z,14.90
2022-09-04T12:36:52.316Z,15.15
2022-09-04T12:42:23.616Z,14.94
2022-09-04T12:47:33.299Z,15.30
2022-09-04T12:52:45.137Z,15.23
2022-09-04T12:57:57.200Z,15.58
2022-09-04T13:02:59.655Z,15.45
2022-09-04T13:08:18.974Z,15.05
2022-09-04T13:13:43.300Z,14.88
2022-09-04T13:19:00.361Z,14.82
2022-09-04T13:24:39.032Z,14.60
2022-09-04T13:30:03.716Z,14.53
2022-09-04T13:35:25.278Z,14.90
2022-09-04T13:40:42.811Z,15.11
2022-09-04T13:45:54.122Z,14.78
2022-09-04T13:51:02.114Z,14.87
2022-09-04T13:56:19.725Z,14.95
2022-09-04T14:01:29.828Z,14.98
2022-09-04T14:06:34.972Z,15.36
2022-09-04T14:11:58.284Z,14.85
2022-09-04T14:17:01.180Z,14.18
2022-09-04T14:22:35.628Z,14.29
2022-09-04T14:27:44.252Z,14.33
2022-09-04T14:33:19.608Z,14.10
2022-09-04T14:38:54.308Z,13.95
2022-09-04T14:44:21.861Z,13.57
2022-09-04T14:49:35.971Z,13.27
2022-09-04T14:54:43.699Z,13.10
2022-09-04T14:59:57.308Z,13.09
2022-09-04T15:05:07.621Z,13.18
2022-09-04T15:10:35.321Z,13.08
2022-09-04T15:15:46.855Z,12.79
2022-09-04T15:21:12.961Z,12.53
2022-09-04T15:26:46.715Z,12.35
2022-09-04T15:31:59.983Z,12.27
2022-09-04T15:37:25.816Z,11.95
2022-09-04T15:43:06.706Z,12.13
2022-09-04T15:48:30.500Z,11.96
2022-09-04T15:53:40.281Z,11.81
2022-09-04T15:58:53.295Z,11.65
2022-09-04T16:04:14.498Z,11.56
2022-09-04T16:09:47.701Z,11.39
2022-09-04T16:15:00.250Z,11.14
2022-09-04T16:20:12.285Z,11.02
2022-09-04T16:25:43.483Z,10.79
2022-09-04T16:31:05.245Z,10.52
2022-09-04T16:36:36.306Z,10.52
2022-09-04T16:41:54.466Z,10.36
2022-09-04T16:47:06.044Z,10.22
2022-09-04T16:52:21.339Z,10.14
2022-09-04T16:57:42.576Z,10.01
2022-09-04T17:02:53.596Z,9.88
2022-09-04T17:08:08.510Z,9.90
2022-09-04T17:13:15.272Z,9.71
2022-09-04T17:18:23.574Z,9.70
2022-09-04T17:29:03.496Z,9.71
2022-09-04T17:29:33.678Z,9.51
2022-09-04T17:40:39.787Z,9.48
2022-09-04T17:40:54.279Z,9.36
2022-09-04T17:45:59.515Z,9.21
2022-09-04T17:51:04.590Z,9.09
2022-09-04T17:56:31.961Z,9.05
2022-09-04T18:01:50.718Z,8.94
2022-09-04T18:07:28.691Z,8.90
2022-09-04T18:13:36.563Z,8.89
2022-09-04T18:18:39.054Z,8.73
2022-09-04T18:23:51.203Z,8.70
2022-09-04T18:29:29.066Z,8.52
2022-09-04T18:37:23.986Z,8.39
2022-09-04T18:41:53.018Z,8.22
2022-09-04T18:50:34.150Z,8.13
2022-09-04T18:51:30.743Z,8.10
2022-09-04T18:56:43.828Z,7.99
2022-09-04T19:02:03.035Z,7.70
2022-09-04T19:07:30.188Z,7.70
2022-09-04T19:12:56.057Z,7.53
2022-09-04T19:18:08.233Z,7.53
2022-09-04T19:23:20.893Z,7.52
2022-09-04T19:28:49.792Z,7.67
2022-09-04T19:34:08.193Z,7.53
2022-09-04T19:45:54.847Z,7.37
2022-09-04T19:46:18.861Z,7.18
2022-09-04T19:53:17.884Z,7.11
2022-09-04T19:56:51.817Z,7.04
2022-09-04T20:02:03.651Z,6.99
2022-09-04T20:07:41.093Z,6.83
2022-09-04T20:12:52.545Z,6.77
2022-09-04T20:18:09.121Z,6.78
2022-09-04T20:23:35.841Z,6.66
2022-09-04T20:28:48.442Z,6.59
2022-09-04T20:33:57.009Z,6.52
2022-09-04T20:39:12.148Z,6.41
2022-09-04T20:44:28.093Z,6.44
2022-09-04T20:52:54.577Z,6.36
2022-09-04T20:55:15.859Z,6.37
2022-09-04T21:03:08.987Z,6.37
2022-09-04T21:06:07.018Z,6.37
2022-09-04T21:11:39.258Z,6.17
2022-09-04T21:16:53.116Z,6.08
2022-09-04T21:22:32.888Z,6.08
2022-09-04T21:27:42.017Z,5.91
2022-09-04T21:32:48.574Z,6.00
2022-09-04T21:38:00.223Z,5.95
2022-09-04T21:43:25.817Z,5.82
2022-09-04T21:49:07.658Z,5.80
2022-09-04T21:56:16.010Z,5.78
2022-09-04T22:02:44.805Z,5.88
2022-09-04T22:06:36.665Z,5.94
2022-09-04T22:13:30.907Z,6.01
2022-09-04T22:18:01.841Z,5.96
2022-09-04T22:23:20.316Z,5.83
2022-09-04T22:28:41.439Z,5.60
2022-09-04T22:34:15.539Z,5.30
2022-09-04T22:39:46.288Z,5.13
2022-09-04T22:45:10.560Z,5.19
2022-09-04T22:50:50.423Z,5.29
2022-09-04T22:56:23.656Z,5.09
2022-09-04T23:01:35.661Z,5.53
2022-09-04T23:12:10.866Z,5.51
2022-09-04T23:13:57.712Z,5.50
2022-09-04T23:19:25.107Z,5.53
2022-09-04T23:26:53.587Z,5.44
2022-09-04T23:30:13.579Z,5.36
2022-09-04T23:35:29.167Z,5.30
2022-09-04T23:40:38.244Z,5.15
2022-09-04T23:46:31.502Z,5.17
2022-09-04T23:51:52.648Z,5.16
2022-09-04T23:57:08.102Z,5.18
